Main page
METAR-TAF:

METAR-TAF

Airports :

Erfurt–Weimar Airport

Erfurt, Germany

latitude: 50-59N, longitude: 010-58E, elevation: 315 m

Current weather observation

The report was made 30 minutes ago, at 09:20 UTC
Wind 5 kt from the Northeast
Temperature -1°C
Humidity 93%
Pressure 1033 hPa
Visibility: 0100 m
freezing fog

METAR: EDDE 170920Z 04005KT 0100 R28/0200N FZFG VV/// M01/M02 Q1033 NOSIG

Time: 10:50 (09:50 UTC)

Forecast

The report was made 1 hour and 52 minutes ago, at 07:58 UTC
Forecast valid from 17 at 07 UTC to 18 at 06 UTC
Wind 4 kt from the East/Northeast
Visibility: 0100 m
Broken clouds at a height lower than 100 ft
freezing fog
Becoming
from 17 at 09 UTC to 17 at 12 UTC
Visibility: 7000 m

TAF: EDDE 170758Z 1707/1806 06004KT 0100 FZFG BKN000 BECMG 1709/1712 7000 NSW NSC

Weather observations and forecasts of more than 4000 airports (METAR and TAF reports).

The available stations are represented by yellow and red dots on the map.

Hover mouse over dot to see the name of the station.

Then click to see weather observations and forecasts.

To change the map : click on the green buttons with a black cross to zoom in, on the green button with a dash to zoom out, or on the green arrows for adjacent maps.


METAR-TAF: